Aérodrome :
LOGIN :

S'inscrire | Disclaimer

   EN    FR    IT 

 










Légende :    VFR   VFR Marginal   IFR   IFR Intensif   IFR Très Intensif
Visi : 
Plafond : 
>= 8 km
>= 3000ft
5 à 8 km
1000 à 3000 ft
1500m à 5 km
500 à 1000 ft
800 à 1500m
200 à 500 ft
< 800m
< 200 ft
Symboles :   Orages  Brouillard  Fortes neiges  Fortes précipitations  Vent > 20 kt
SIGMETs :   Divers  Orages  Givrage  Turbulence  Onde Orograph.  Cendres Volcan.







- Altitude de l'aérodrome : 194 ft
- Code IATA : ANE
- Voir les cartes d'approche


LFJR - Angers Marcé

DERNIER METAR :
  • 280800Z AUTO 26006KT 9999 BKN044 OVC052 07/05 Q1019 TEMPO BKN030TCU

METARs EXPIRÉS :
  • 280730Z AUTO 26005KT 9999 SCT041 BKN048 OVC056 06/04 Q1019 TEMPO BKN030TCU
  • 280700Z AUTO 25006KT 9999 FEW033 OVC047 06/04 Q1019 TEMPO BKN030TCU
  • 280630Z AUTO 25005KT 9999 SCT042 OVC052 05/04 Q1019 TEMPO BKN030TCU
  • 280600Z AUTO 23003KT 9000 FEW041 BKN050 OVC060 05/04 Q1019 TEMPO BKN030TCU
  • 280530Z AUTO 25004KT 5000 -RA BR FEW010 BKN049 OVC056 04/03 Q1019 TEMPO BKN030TCU

TAF TAF LFJR
Valide du 28 à 06h jusqu'au 28 à 15h UTC


280500Z 2806/2815 VRB03KT 9999 BKN035 BKN060
BECMG 2812/2814 28010KT
PROB40
TEMPO 2806/2815 -SHRA BKN030TCU
Pas de NOTAMs connus pour ce terrain.



MET'MAP, la Météo Aéronautique d'un coup d'oeil ! - Copyright ORBIFLY Décembre 2007 - Disclaimer

ORBIFLY MET'MAP TEAM :

Programmation & Développement : Alexandra Zaïnal
Conception & Développement : Baudouin d'Aumeries
Co-Programmation & Développement : Marc-Olivier Méhu
Soutien technique & logistique : Manuel Goepfert

Contact : metmap@orbifly.com




SOURCES & CREDITS :

   NOAA